sensor_id;sensor_type;location;lat;lon;timestamp;P1;durP1;ratioP1;P2;durP2;ratioP2
12165;SDS011;6146;48.128;11.476;2023-06-10T00:01:54;6.67;;;6.17;;
12165;SDS011;6146;48.128;11.476;2023-06-10T00:04:24;7.37;;;6.77;;
12165;SDS011;6146;48.128;11.476;2023-06-10T00:06:51;8.07;;;6.80;;
12165;SDS011;6146;48.128;11.476;2023-06-10T00:09:16;6.63;;;6.03;;
12165;SDS011;6146;48.128;11.476;2023-06-10T00:11:43;7.03;;;6.33;;
12165;SDS011;6146;48.128;11.476;2023-06-10T00:14:09;6.67;;;5.97;;
12165;SDS011;6146;48.128;11.476;2023-06-10T00:16:35;6.57;;;5.97;;
12165;SDS011;6146;48.128;11.476;2023-06-10T00:19:01;6.60;;;6.00;;
12165;SDS011;6146;48.128;11.476;2023-06-10T00:21:28;6.60;;;6.10;;
12165;SDS011;6146;48.128;11.476;2023-06-10T00:24:05;6.63;;;5.90;;
12165;SDS011;6146;48.128;11.476;2023-06-10T00:26:39;6.20;;;5.70;;
12165;SDS011;6146;48.128;11.476;2023-06-10T00:29:05;5.97;;;5.47;;
12165;SDS011;6146;48.128;11.476;2023-06-10T00:31:32;6.03;;;5.53;;
12165;SDS011;6146;48.128;11.476;2023-06-10T00:33:58;6.27;;;5.67;;
12165;SDS011;6146;48.128;11.476;2023-06-10T00:36:24;6.50;;;5.90;;
12165;SDS011;6146;48.128;11.476;2023-06-10T00:38:50;6.37;;;5.57;;
12165;SDS011;6146;48.128;11.476;2023-06-10T00:41:15;5.87;;;5.37;;
12165;SDS011;6146;48.128;11.476;2023-06-10T00:43:41;5.90;;;5.40;;
12165;SDS011;6146;48.128;11.476;2023-06-10T00:46:06;5.60;;;5.10;;
12165;SDS011;6146;48.128;11.476;2023-06-10T00:48:32;6.10;;;5.13;;
12165;SDS011;6146;48.128;11.476;2023-06-10T00:50:58;6.47;;;5.77;;
12165;SDS011;6146;48.128;11.476;2023-06-10T00:53:25;5.60;;;5.10;;
12165;SDS011;6146;48.128;11.476;2023-06-10T00:55:52;5.83;;;5.27;;
12165;SDS011;6146;48.128;11.476;2023-06-10T00:58:18;6.37;;;5.87;;
12165;SDS011;6146;48.128;11.476;2023-06-10T01:00:44;6.67;;;5.80;;
12165;SDS011;6146;48.128;11.476;2023-06-10T01:03:10;6.03;;;5.53;;
12165;SDS011;6146;48.128;11.476;2023-06-10T01:05:37;6.43;;;5.83;;
12165;SDS011;6146;48.128;11.476;2023-06-10T01:13:23;7.90;;;6.17;;
12165;SDS011;6146;48.128;11.476;2023-06-10T01:15:53;6.63;;;5.97;;
12165;SDS011;6146;48.128;11.476;2023-06-10T01:18:20;6.87;;;6.17;;
12165;SDS011;6146;48.128;11.476;2023-06-10T01:20:46;6.33;;;5.80;;
12165;SDS011;6146;48.128;11.476;2023-06-10T01:23:13;6.33;;;5.73;;
12165;SDS011;6146;48.128;11.476;2023-06-10T01:26:02;6.60;;;6.10;;
12165;SDS011;6146;48.128;11.476;2023-06-10T01:28:30;7.30;;;6.60;;
12165;SDS011;6146;48.128;11.476;2023-06-10T01:31:30;6.77;;;6.17;;
12165;SDS011;6146;48.128;11.476;2023-06-10T01:34:09;7.20;;;6.60;;
12165;SDS011;6146;48.128;11.476;2023-06-10T01:36:37;7.00;;;6.30;;
12165;SDS011;6146;48.128;11.476;2023-06-10T01:39:05;7.27;;;6.57;;
12165;SDS011;6146;48.128;11.476;2023-06-10T01:41:34;7.83;;;7.03;;
12165;SDS011;6146;48.128;11.476;2023-06-10T01:44:01;7.33;;;6.70;;
12165;SDS011;6146;48.128;11.476;2023-06-10T01:46:27;7.80;;;7.00;;
12165;SDS011;6146;48.128;11.476;2023-06-10T01:48:52;7.93;;;7.23;;
12165;SDS011;6146;48.128;11.476;2023-06-10T01:51:18;7.67;;;6.97;;
12165;SDS011;6146;48.128;11.476;2023-06-10T01:53:44;7.90;;;7.10;;
12165;SDS011;6146;48.128;11.476;2023-06-10T01:56:09;7.77;;;7.07;;
12165;SDS011;6146;48.128;11.476;2023-06-10T01:58:35;7.97;;;7.27;;
12165;SDS011;6146;48.128;11.476;2023-06-10T02:01:01;7.63;;;6.93;;
12165;SDS011;6146;48.128;11.476;2023-06-10T02:03:26;7.60;;;6.90;;
12165;SDS011;6146;48.128;11.476;2023-06-10T02:05:52;7.63;;;6.97;;
12165;SDS011;6146;48.128;11.476;2023-06-10T02:08:17;7.67;;;6.93;;
12165;SDS011;6146;48.128;11.476;2023-06-10T02:10:43;7.30;;;6.63;;
12165;SDS011;6146;48.128;11.476;2023-06-10T02:13:09;7.60;;;7.00;;
12165;SDS011;6146;48.128;11.476;2023-06-10T02:15:34;8.00;;;7.30;;
12165;SDS011;6146;48.128;11.476;2023-06-10T02:18:00;7.33;;;6.67;;
12165;SDS011;6146;48.128;11.476;2023-06-10T02:20:26;7.47;;;6.87;;
12165;SDS011;6146;48.128;11.476;2023-06-10T02:22:52;7.73;;;7.13;;
12165;SDS011;6146;48.128;11.476;2023-06-10T02:25:18;7.40;;;6.73;;
12165;SDS011;6146;48.128;11.476;2023-06-10T02:27:43;7.90;;;7.30;;
12165;SDS011;6146;48.128;11.476;2023-06-10T02:30:09;8.00;;;7.30;;
12165;SDS011;6146;48.128;11.476;2023-06-10T02:32:35;7.63;;;6.93;;
12165;SDS011;6146;48.128;11.476;2023-06-10T02:35:01;9.10;;;8.20;;
12165;SDS011;6146;48.128;11.476;2023-06-10T02:37:27;8.67;;;7.87;;
12165;SDS011;6146;48.128;11.476;2023-06-10T02:39:52;8.17;;;7.37;;
12165;SDS011;6146;48.128;11.476;2023-06-10T02:42:18;8.33;;;7.63;;
12165;SDS011;6146;48.128;11.476;2023-06-10T02:44:44;8.57;;;7.70;;
12165;SDS011;6146;48.128;11.476;2023-06-10T02:47:10;9.47;;;8.60;;
12165;SDS011;6146;48.128;11.476;2023-06-10T02:49:35;8.73;;;7.93;;
12165;SDS011;6146;48.128;11.476;2023-06-10T02:52:01;7.97;;;7.27;;
12165;SDS011;6146;48.128;11.476;2023-06-10T02:54:27;9.03;;;8.23;;
12165;SDS011;6146;48.128;11.476;2023-06-10T02:56:52;8.93;;;8.13;;
12165;SDS011;6146;48.128;11.476;2023-06-10T02:59:20;8.33;;;7.63;;
12165;SDS011;6146;48.128;11.476;2023-06-10T03:01:46;8.97;;;8.17;;
12165;SDS011;6146;48.128;11.476;2023-06-10T03:04:12;8.47;;;7.67;;
12165;SDS011;6146;48.128;11.476;2023-06-10T03:06:40;8.23;;;7.43;;
12165;SDS011;6146;48.128;11.476;2023-06-10T03:09:06;8.30;;;7.60;;
12165;SDS011;6146;48.128;11.476;2023-06-10T03:11:34;8.50;;;7.70;;
12165;SDS011;6146;48.128;11.476;2023-06-10T03:14:00;8.23;;;7.53;;
12165;SDS011;6146;48.128;11.476;2023-06-10T03:16:26;8.70;;;7.47;;
12165;SDS011;6146;48.128;11.476;2023-06-10T03:18:52;9.10;;;8.33;;
12165;SDS011;6146;48.128;11.476;2023-06-10T03:21:18;9.50;;;8.30;;
12165;SDS011;6146;48.128;11.476;2023-06-10T03:23:43;9.00;;;8.20;;
12165;SDS011;6146;48.128;11.476;2023-06-10T03:26:10;8.93;;;8.13;;
12165;SDS011;6146;48.128;11.476;2023-06-10T03:28:37;10.00;;;9.00;;
12165;SDS011;6146;48.128;11.476;2023-06-10T03:31:03;9.60;;;8.67;;
12165;SDS011;6146;48.128;11.476;2023-06-10T03:33:28;9.37;;;8.47;;
12165;SDS011;6146;48.128;11.476;2023-06-10T03:35:55;9.17;;;8.37;;
12165;SDS011;6146;48.128;11.476;2023-06-10T03:38:20;9.77;;;8.97;;
12165;SDS011;6146;48.128;11.476;2023-06-10T03:40:46;9.40;;;8.60;;
12165;SDS011;6146;48.128;11.476;2023-06-10T03:43:12;9.57;;;8.70;;
12165;SDS011;6146;48.128;11.476;2023-06-10T03:45:37;10.30;;;9.30;;
12165;SDS011;6146;48.128;11.476;2023-06-10T03:48:03;9.87;;;8.87;;
12165;SDS011;6146;48.128;11.476;2023-06-10T03:50:29;10.27;;;9.23;;
12165;SDS011;6146;48.128;11.476;2023-06-10T03:52:55;9.70;;;8.80;;
12165;SDS011;6146;48.128;11.476;2023-06-10T03:55:20;10.43;;;9.53;;
12165;SDS011;6146;48.128;11.476;2023-06-10T03:57:47;9.57;;;8.67;;
12165;SDS011;6146;48.128;11.476;2023-06-10T04:00:13;10.13;;;9.23;;
12165;SDS011;6146;48.128;11.476;2023-06-10T04:02:40;10.43;;;9.43;;
12165;SDS011;6146;48.128;11.476;2023-06-10T04:05:13;10.27;;;9.37;;
12165;SDS011;6146;48.128;11.476;2023-06-10T04:07:40;10.17;;;9.27;;
12165;SDS011;6146;48.128;11.476;2023-06-10T04:10:07;11.47;;;10.40;;
12165;SDS011;6146;48.128;11.476;2023-06-10T04:12:33;10.10;;;9.17;;
12165;SDS011;6146;48.128;11.476;2023-06-10T04:14:59;10.47;;;9.57;;
12165;SDS011;6146;48.128;11.476;2023-06-10T04:17:25;10.17;;;9.27;;
12165;SDS011;6146;48.128;11.476;2023-06-10T04:19:51;11.70;;;10.37;;
12165;SDS011;6146;48.128;11.476;2023-06-10T04:22:17;10.53;;;9.53;;
12165;SDS011;6146;48.128;11.476;2023-06-10T04:24:43;11.00;;;10.00;;
12165;SDS011;6146;48.128;11.476;2023-06-10T04:27:09;11.30;;;10.30;;
12165;SDS011;6146;48.128;11.476;2023-06-10T04:29:35;10.83;;;9.87;;
12165;SDS011;6146;48.128;11.476;2023-06-10T04:32:01;11.07;;;10.07;;
12165;SDS011;6146;48.128;11.476;2023-06-10T04:34:27;10.50;;;9.60;;
12165;SDS011;6146;48.128;11.476;2023-06-10T04:36:52;10.43;;;9.53;;
12165;SDS011;6146;48.128;11.476;2023-06-10T04:39:18;9.97;;;9.07;;
12165;SDS011;6146;48.128;11.476;2023-06-10T04:41:44;9.40;;;8.40;;
12165;SDS011;6146;48.128;11.476;2023-06-10T04:44:11;8.00;;;7.30;;
12165;SDS011;6146;48.128;11.476;2023-06-10T04:46:37;8.87;;;8.07;;
12165;SDS011;6146;48.128;11.476;2023-06-10T04:49:02;8.43;;;7.73;;
12165;SDS011;6146;48.128;11.476;2023-06-10T04:51:29;8.17;;;7.47;;
12165;SDS011;6146;48.128;11.476;2023-06-10T04:53:56;7.87;;;7.07;;
12165;SDS011;6146;48.128;11.476;2023-06-10T04:56:22;7.53;;;6.87;;
12165;SDS011;6146;48.128;11.476;2023-06-10T04:58:48;7.40;;;6.80;;
12165;SDS011;6146;48.128;11.476;2023-06-10T05:01:14;7.93;;;7.23;;
12165;SDS011;6146;48.128;11.476;2023-06-10T05:03:40;7.40;;;6.80;;
12165;SDS011;6146;48.128;11.476;2023-06-10T05:06:06;8.37;;;7.30;;
12165;SDS011;6146;48.128;11.476;2023-06-10T05:08:31;7.70;;;7.10;;
12165;SDS011;6146;48.128;11.476;2023-06-10T05:10:57;8.10;;;7.40;;
12165;SDS011;6146;48.128;11.476;2023-06-10T05:13:23;7.70;;;7.00;;
12165;SDS011;6146;48.128;11.476;2023-06-10T05:15:48;7.27;;;6.77;;
12165;SDS011;6146;48.128;11.476;2023-06-10T05:18:14;7.53;;;6.90;;
12165;SDS011;6146;48.128;11.476;2023-06-10T05:20:39;8.10;;;7.30;;
12165;SDS011;6146;48.128;11.476;2023-06-10T05:23:05;7.30;;;6.70;;
12165;SDS011;6146;48.128;11.476;2023-06-10T05:25:32;7.83;;;7.13;;
12165;SDS011;6146;48.128;11.476;2023-06-10T05:27:58;7.37;;;6.77;;
12165;SDS011;6146;48.128;11.476;2023-06-10T05:30:24;7.93;;;7.13;;
12165;SDS011;6146;48.128;11.476;2023-06-10T05:32:50;7.27;;;6.67;;
12165;SDS011;6146;48.128;11.476;2023-06-10T05:35:17;8.03;;;7.33;;
12165;SDS011;6146;48.128;11.476;2023-06-10T05:37:43;7.17;;;6.47;;
12165;SDS011;6146;48.128;11.476;2023-06-10T05:40:09;6.83;;;6.33;;
12165;SDS011;6146;48.128;11.476;2023-06-10T05:42:35;6.60;;;6.10;;
12165;SDS011;6146;48.128;11.476;2023-06-10T05:45:01;7.38;;;6.78;;
12165;SDS011;6146;48.128;11.476;2023-06-10T05:47:27;7.45;;;6.75;;
12165;SDS011;6146;48.128;11.476;2023-06-10T05:49:52;7.32;;;6.72;;
12165;SDS011;6146;48.128;11.476;2023-06-10T05:52:18;7.47;;;6.88;;
12165;SDS011;6146;48.128;11.476;2023-06-10T05:54:44;6.35;;;5.85;;
12165;SDS011;6146;48.128;11.476;2023-06-10T05:57:09;5.90;;;5.43;;
12165;SDS011;6146;48.128;11.476;2023-06-10T05:59:35;7.47;;;6.88;;
12165;SDS011;6146;48.128;11.476;2023-06-10T06:02:01;6.53;;;5.93;;
12165;SDS011;6146;48.128;11.476;2023-06-10T06:04:27;7.32;;;6.63;;
12165;SDS011;6146;48.128;11.476;2023-06-10T06:06:52;6.55;;;6.00;;
12165;SDS011;6146;48.128;11.476;2023-06-10T06:09:18;7.03;;;6.40;;
12165;SDS011;6146;48.128;11.476;2023-06-10T06:11:43;7.25;;;6.65;;
12165;SDS011;6146;48.128;11.476;2023-06-10T06:14:09;6.55;;;6.05;;
12165;SDS011;6146;48.128;11.476;2023-06-10T06:16:34;6.63;;;6.13;;
12165;SDS011;6146;48.128;11.476;2023-06-10T06:19:00;6.13;;;5.63;;
12165;SDS011;6146;48.128;11.476;2023-06-10T06:21:26;6.15;;;5.65;;
12165;SDS011;6146;48.128;11.476;2023-06-10T06:23:51;6.60;;;6.10;;
12165;SDS011;6146;48.128;11.476;2023-06-10T06:26:17;6.22;;;5.72;;
12165;SDS011;6146;48.128;11.476;2023-06-10T06:28:42;7.00;;;6.50;;
12165;SDS011;6146;48.128;11.476;2023-06-10T06:31:08;6.50;;;5.90;;
12165;SDS011;6146;48.128;11.476;2023-06-10T06:33:34;5.65;;;5.25;;
12165;SDS011;6146;48.128;11.476;2023-06-10T06:35:59;6.18;;;5.57;;
12165;SDS011;6146;48.128;11.476;2023-06-10T06:38:28;6.50;;;6.00;;
12165;SDS011;6146;48.128;11.476;2023-06-10T06:40:53;5.40;;;5.00;;
12165;SDS011;6146;48.128;11.476;2023-06-10T06:43:19;5.40;;;5.00;;
12165;SDS011;6146;48.128;11.476;2023-06-10T06:45:44;6.00;;;5.50;;
12165;SDS011;6146;48.128;11.476;2023-06-10T06:48:11;6.20;;;5.70;;
12165;SDS011;6146;48.128;11.476;2023-06-10T06:50:37;6.35;;;5.75;;
12165;SDS011;6146;48.128;11.476;2023-06-10T06:53:03;5.93;;;5.43;;
12165;SDS011;6146;48.128;11.476;2023-06-10T06:55:29;6.28;;;5.70;;
12165;SDS011;6146;48.128;11.476;2023-06-10T06:57:54;6.80;;;6.20;;
12165;SDS011;6146;48.128;11.476;2023-06-10T07:00:20;7.00;;;6.30;;
12165;SDS011;6146;48.128;11.476;2023-06-10T07:02:46;5.53;;;5.13;;
12165;SDS011;6146;48.128;11.476;2023-06-10T07:05:12;6.05;;;5.55;;
12165;SDS011;6146;48.128;11.476;2023-06-10T07:07:38;5.18;;;4.78;;
12165;SDS011;6146;48.128;11.476;2023-06-10T07:10:04;5.47;;;4.95;;
12165;SDS011;6146;48.128;11.476;2023-06-10T07:12:30;6.03;;;5.53;;
12165;SDS011;6146;48.128;11.476;2023-06-10T07:14:55;5.63;;;5.10;;
12165;SDS011;6146;48.128;11.476;2023-06-10T07:17:21;5.15;;;4.75;;
12165;SDS011;6146;48.128;11.476;2023-06-10T07:19:46;5.45;;;4.95;;
12165;SDS011;6146;48.128;11.476;2023-06-10T07:22:12;5.65;;;5.15;;
12165;SDS011;6146;48.128;11.476;2023-06-10T07:24:38;5.53;;;5.13;;
12165;SDS011;6146;48.128;11.476;2023-06-10T07:27:03;6.07;;;5.57;;
12165;SDS011;6146;48.128;11.476;2023-06-10T07:29:30;5.40;;;5.00;;
12165;SDS011;6146;48.128;11.476;2023-06-10T07:31:56;6.28;;;5.78;;
12165;SDS011;6146;48.128;11.476;2023-06-10T07:34:21;5.82;;;5.43;;
12165;SDS011;6146;48.128;11.476;2023-06-10T07:36:47;5.60;;;5.20;;
12165;SDS011;6146;48.128;11.476;2023-06-10T07:39:12;6.18;;;5.57;;
12165;SDS011;6146;48.128;11.476;2023-06-10T07:41:38;5.57;;;5.07;;
12165;SDS011;6146;48.128;11.476;2023-06-10T07:44:03;4.63;;;4.22;;
12165;SDS011;6146;48.128;11.476;2023-06-10T07:46:29;5.05;;;4.65;;
12165;SDS011;6146;48.128;11.476;2023-06-10T07:48:55;5.20;;;4.70;;
12165;SDS011;6146;48.128;11.476;2023-06-10T07:51:20;4.03;;;3.70;;
12165;SDS011;6146;48.128;11.476;2023-06-10T07:53:46;4.10;;;3.80;;
12165;SDS011;6146;48.128;11.476;2023-06-10T07:56:12;4.15;;;3.53;;
12165;SDS011;6146;48.128;11.476;2023-06-10T07:58:38;3.97;;;3.67;;
12165;SDS011;6146;48.128;11.476;2023-06-10T08:01:03;4.38;;;3.75;;
12165;SDS011;6146;48.128;11.476;2023-06-10T08:03:29;4.07;;;3.78;;
12165;SDS011;6146;48.128;11.476;2023-06-10T08:05:55;4.00;;;3.70;;
12165;SDS011;6146;48.128;11.476;2023-06-10T08:08:20;4.20;;;3.90;;
12165;SDS011;6146;48.128;11.476;2023-06-10T08:10:46;3.75;;;3.45;;
12165;SDS011;6146;48.128;11.476;2023-06-10T08:13:11;3.40;;;3.10;;
12165;SDS011;6146;48.128;11.476;2023-06-10T08:15:37;3.60;;;3.30;;
12165;SDS011;6146;48.128;11.476;2023-06-10T08:18:03;3.22;;;3.03;;
12165;SDS011;6146;48.128;11.476;2023-06-10T08:20:28;3.22;;;3.03;;
12165;SDS011;6146;48.128;11.476;2023-06-10T08:22:54;3.35;;;3.05;;
12165;SDS011;6146;48.128;11.476;2023-06-10T08:25:20;3.35;;;3.15;;
12165;SDS011;6146;48.128;11.476;2023-06-10T08:27:47;3.75;;;3.45;;
12165;SDS011;6146;48.128;11.476;2023-06-10T08:30:13;3.40;;;3.10;;
12165;SDS011;6146;48.128;11.476;2023-06-10T08:32:39;3.63;;;3.30;;
12165;SDS011;6146;48.128;11.476;2023-06-10T08:35:04;3.60;;;3.30;;
12165;SDS011;6146;48.128;11.476;2023-06-10T08:37:30;3.50;;;3.20;;
12165;SDS011;6146;48.128;11.476;2023-06-10T08:39:56;3.03;;;2.83;;
12165;SDS011;6146;48.128;11.476;2023-06-10T08:44:54;4.82;;;3.17;;
12165;SDS011;6146;48.128;11.476;2023-06-10T08:47:22;3.38;;;3.08;;
12165;SDS011;6146;48.128;11.476;2023-06-10T08:49:48;3.80;;;3.50;;
12165;SDS011;6146;48.128;11.476;2023-06-10T08:52:15;3.97;;;3.67;;
12165;SDS011;6146;48.128;11.476;2023-06-10T08:54:42;3.50;;;3.20;;
12165;SDS011;6146;48.128;11.476;2023-06-10T08:57:14;3.42;;;3.13;;
12165;SDS011;6146;48.128;11.476;2023-06-10T08:59:42;3.63;;;3.33;;
12165;SDS011;6146;48.128;11.476;2023-06-10T09:02:08;3.50;;;3.20;;
12165;SDS011;6146;48.128;11.476;2023-06-10T09:04:34;3.67;;;3.38;;
12165;SDS011;6146;48.128;11.476;2023-06-10T09:07:01;4.85;;;4.35;;
12165;SDS011;6146;48.128;11.476;2023-06-10T09:09:27;4.18;;;3.85;;
12165;SDS011;6146;48.128;11.476;2023-06-10T09:11:55;3.80;;;3.50;;
12165;SDS011;6146;48.128;11.476;2023-06-10T09:14:21;3.92;;;3.63;;
12165;SDS011;6146;48.128;11.476;2023-06-10T09:16:46;4.40;;;4.05;;
12165;SDS011;6146;48.128;11.476;2023-06-10T09:19:13;3.92;;;3.63;;
12165;SDS011;6146;48.128;11.476;2023-06-10T09:21:41;3.80;;;3.50;;
12165;SDS011;6146;48.128;11.476;2023-06-10T09:24:06;4.13;;;3.83;;
12165;SDS011;6146;48.128;11.476;2023-06-10T09:26:32;3.80;;;3.50;;
12165;SDS011;6146;48.128;11.476;2023-06-10T09:29:02;3.80;;;3.50;;
12165;SDS011;6146;48.128;11.476;2023-06-10T09:31:30;3.63;;;3.33;;
12165;SDS011;6146;48.128;11.476;2023-06-10T09:34:05;3.67;;;3.38;;
12165;SDS011;6146;48.128;11.476;2023-06-10T09:36:35;4.38;;;3.97;;
12165;SDS011;6146;48.128;11.476;2023-06-10T09:39:01;3.67;;;3.38;;
12165;SDS011;6146;48.128;11.476;2023-06-10T09:41:34;3.22;;;3.03;;
12165;SDS011;6146;48.128;11.476;2023-06-10T09:44:00;3.83;;;3.53;;
12165;SDS011;6146;48.128;11.476;2023-06-10T09:46:30;4.05;;;3.65;;
12165;SDS011;6146;48.128;11.476;2023-06-10T09:48:57;4.10;;;3.80;;
12165;SDS011;6146;48.128;11.476;2023-06-10T09:51:23;3.40;;;3.08;;
12165;SDS011;6146;48.128;11.476;2023-06-10T09:53:50;3.83;;;3.53;;
12165;SDS011;6146;48.128;11.476;2023-06-10T09:56:16;3.30;;;3.10;;
12165;SDS011;6146;48.128;11.476;2023-06-10T09:58:42;4.22;;;3.53;;
12165;SDS011;6146;48.128;11.476;2023-06-10T10:01:12;4.13;;;3.75;;
12165;SDS011;6146;48.128;11.476;2023-06-10T10:03:46;3.38;;;3.17;;
12165;SDS011;6146;48.128;11.476;2023-06-10T10:06:15;4.07;;;3.78;;
12165;SDS011;6146;48.128;11.476;2023-06-10T10:08:42;3.38;;;3.17;;
12165;SDS011;6146;48.128;11.476;2023-06-10T10:11:09;4.05;;;3.75;;
12165;SDS011;6146;48.128;11.476;2023-06-10T10:13:35;4.20;;;3.80;;
12165;SDS011;6146;48.128;11.476;2023-06-10T10:16:07;3.97;;;3.65;;
12165;SDS011;6146;48.128;11.476;2023-06-10T10:18:41;4.00;;;3.60;;
12165;SDS011;6146;48.128;11.476;2023-06-10T10:21:13;4.38;;;3.50;;
12165;SDS011;6146;48.128;11.476;2023-06-10T10:23:46;3.42;;;3.13;;
12165;SDS011;6146;48.128;11.476;2023-06-10T10:26:17;3.53;;;3.22;;
12165;SDS011;6146;48.128;11.476;2023-06-10T10:31:51;3.58;;;3.28;;
12165;SDS011;6146;48.128;11.476;2023-06-10T10:34:21;3.57;;;3.27;;
12165;SDS011;6146;48.128;11.476;2023-06-10T10:36:54;3.45;;;3.20;;
12165;SDS011;6146;48.128;11.476;2023-06-10T10:39:20;4.00;;;3.50;;
12165;SDS011;6146;48.128;11.476;2023-06-10T10:41:46;3.70;;;3.40;;
12165;SDS011;6146;48.128;11.476;2023-06-10T10:44:13;3.55;;;3.25;;
12165;SDS011;6146;48.128;11.476;2023-06-10T10:46:57;3.75;;;3.35;;
12165;SDS011;6146;48.128;11.476;2023-06-10T10:49:28;3.30;;;3.00;;
12165;SDS011;6146;48.128;11.476;2023-06-10T10:51:57;2.92;;;2.55;;
12165;SDS011;6146;48.128;11.476;2023-06-10T11:04:58;3.38;;;2.80;;
12165;SDS011;6146;48.128;11.476;2023-06-10T11:07:25;3.10;;;2.90;;
12165;SDS011;6146;48.128;11.476;2023-06-10T11:12:40;2.78;;;2.58;;
12165;SDS011;6146;48.128;11.476;2023-06-10T11:15:21;2.83;;;2.63;;
12165;SDS011;6146;48.128;11.476;2023-06-10T11:20:44;2.47;;;2.28;;
12165;SDS011;6146;48.128;11.476;2023-06-10T11:23:48;3.30;;;3.00;;
12165;SDS011;6146;48.128;11.476;2023-06-10T11:26:17;3.10;;;2.90;;
12165;SDS011;6146;48.128;11.476;2023-06-10T11:31:28;4.88;;;4.30;;
12165;SDS011;6146;48.128;11.476;2023-06-10T11:33:56;3.65;;;3.35;;
12165;SDS011;6146;48.128;11.476;2023-06-10T11:36:23;3.47;;;2.90;;
12165;SDS011;6146;48.128;11.476;2023-06-10T11:38:52;3.42;;;3.15;;
12165;SDS011;6146;48.128;11.476;2023-06-10T11:41:23;3.30;;;3.00;;
12165;SDS011;6146;48.128;11.476;2023-06-10T11:43:52;3.53;;;3.22;;
12165;SDS011;6146;48.128;11.476;2023-06-10T11:46:21;3.45;;;3.15;;
12165;SDS011;6146;48.128;11.476;2023-06-10T11:48:51;3.50;;;3.20;;
12165;SDS011;6146;48.128;11.476;2023-06-10T11:51:18;3.78;;;2.90;;
12165;SDS011;6146;48.128;11.476;2023-06-10T11:53:44;3.65;;;3.35;;
12165;SDS011;6146;48.128;11.476;2023-06-10T11:56:10;3.53;;;3.28;;
12165;SDS011;6146;48.128;11.476;2023-06-10T11:58:36;4.25;;;3.50;;
12165;SDS011;6146;48.128;11.476;2023-06-10T12:01:01;4.63;;;3.38;;
12165;SDS011;6146;48.128;11.476;2023-06-10T12:03:31;3.50;;;3.20;;
12165;SDS011;6146;48.128;11.476;2023-06-10T12:06:03;3.55;;;3.25;;
12165;SDS011;6146;48.128;11.476;2023-06-10T12:08:30;3.80;;;3.50;;
12165;SDS011;6146;48.128;11.476;2023-06-10T12:10:56;3.72;;;3.42;;
12165;SDS011;6146;48.128;11.476;2023-06-10T12:13:22;3.40;;;3.20;;
12165;SDS011;6146;48.128;11.476;2023-06-10T12:15:49;3.28;;;3.08;;
12165;SDS011;6146;48.128;11.476;2023-06-10T12:18:23;3.33;;;3.10;;
12165;SDS011;6146;48.128;11.476;2023-06-10T12:20:49;2.97;;;2.78;;
12165;SDS011;6146;48.128;11.476;2023-06-10T12:23:16;3.17;;;2.90;;
12165;SDS011;6146;48.128;11.476;2023-06-10T12:25:53;3.00;;;2.70;;
12165;SDS011;6146;48.128;11.476;2023-06-10T12:28:23;3.10;;;2.88;;
12165;SDS011;6146;48.128;11.476;2023-06-10T12:30:49;3.65;;;3.13;;
12165;SDS011;6146;48.128;11.476;2023-06-10T12:33:18;3.50;;;3.20;;
12165;SDS011;6146;48.128;11.476;2023-06-10T12:35:48;3.10;;;2.80;;
12165;SDS011;6146;48.128;11.476;2023-06-10T12:38:20;3.45;;;3.15;;
12165;SDS011;6146;48.128;11.476;2023-06-10T12:40:47;2.88;;;2.67;;
12165;SDS011;6146;48.128;11.476;2023-06-10T12:43:13;3.28;;;2.92;;
12165;SDS011;6146;48.128;11.476;2023-06-10T12:45:43;2.88;;;2.67;;
12165;SDS011;6146;48.128;11.476;2023-06-10T12:50:40;3.35;;;2.72;;
12165;SDS011;6146;48.128;11.476;2023-06-10T12:53:06;3.45;;;2.75;;
12165;SDS011;6146;48.128;11.476;2023-06-10T12:55:32;2.80;;;2.60;;
12165;SDS011;6146;48.128;11.476;2023-06-10T12:57:58;3.10;;;2.80;;
12165;SDS011;6146;48.128;11.476;2023-06-10T13:00:25;2.90;;;2.70;;
12165;SDS011;6146;48.128;11.476;2023-06-10T13:02:53;3.13;;;2.83;;
12165;SDS011;6146;48.128;11.476;2023-06-10T13:05:19;3.40;;;3.10;;
12165;SDS011;6146;48.128;11.476;2023-06-10T13:07:45;3.63;;;3.10;;
12165;SDS011;6146;48.128;11.476;2023-06-10T13:10:12;3.27;;;2.97;;
12165;SDS011;6146;48.128;11.476;2023-06-10T13:12:38;3.20;;;3.00;;
12165;SDS011;6146;48.128;11.476;2023-06-10T13:15:04;3.50;;;3.20;;
12165;SDS011;6146;48.128;11.476;2023-06-10T13:17:31;3.40;;;3.10;;
12165;SDS011;6146;48.128;11.476;2023-06-10T13:19:56;3.50;;;3.20;;
12165;SDS011;6146;48.128;11.476;2023-06-10T13:22:22;4.00;;;3.60;;
12165;SDS011;6146;48.128;11.476;2023-06-10T13:24:49;4.33;;;4.03;;
12165;SDS011;6146;48.128;11.476;2023-06-10T13:27:14;4.60;;;4.20;;
12165;SDS011;6146;48.128;11.476;2023-06-10T13:29:40;4.13;;;3.83;;
12165;SDS011;6146;48.128;11.476;2023-06-10T13:32:06;4.43;;;4.03;;
12165;SDS011;6146;48.128;11.476;2023-06-10T13:34:32;4.67;;;3.40;;
12165;SDS011;6146;48.128;11.476;2023-06-10T13:36:57;4.60;;;4.20;;
12165;SDS011;6146;48.128;11.476;2023-06-10T13:39:23;5.00;;;4.50;;
12165;SDS011;6146;48.128;11.476;2023-06-10T13:41:49;4.13;;;3.77;;
12165;SDS011;6146;48.128;11.476;2023-06-10T13:44:14;3.77;;;3.47;;
12165;SDS011;6146;48.128;11.476;2023-06-10T13:46:40;4.00;;;3.70;;
12165;SDS011;6146;48.128;11.476;2023-06-10T13:49:05;4.70;;;4.30;;
12165;SDS011;6146;48.128;11.476;2023-06-10T13:51:31;3.97;;;3.67;;
12165;SDS011;6146;48.128;11.476;2023-06-10T13:53:56;4.40;;;4.00;;
12165;SDS011;6146;48.128;11.476;2023-06-10T13:56:22;4.03;;;3.53;;
12165;SDS011;6146;48.128;11.476;2023-06-10T13:58:48;4.17;;;3.87;;
12165;SDS011;6146;48.128;11.476;2023-06-10T14:01:13;4.23;;;3.93;;
12165;SDS011;6146;48.128;11.476;2023-06-10T14:03:39;3.93;;;3.63;;
12165;SDS011;6146;48.128;11.476;2023-06-10T14:06:05;3.90;;;3.60;;
12165;SDS011;6146;48.128;11.476;2023-06-10T14:08:30;4.17;;;3.87;;
12165;SDS011;6146;48.128;11.476;2023-06-10T14:10:56;3.97;;;3.67;;
12165;SDS011;6146;48.128;11.476;2023-06-10T14:13:21;4.30;;;3.63;;
12165;SDS011;6146;48.128;11.476;2023-06-10T14:15:47;3.70;;;3.40;;
12165;SDS011;6146;48.128;11.476;2023-06-10T14:18:13;3.77;;;3.47;;
12165;SDS011;6146;48.128;11.476;2023-06-10T14:20:38;3.80;;;3.50;;
12165;SDS011;6146;48.128;11.476;2023-06-10T14:23:04;3.63;;;3.33;;
12165;SDS011;6146;48.128;11.476;2023-06-10T14:25:29;3.60;;;3.30;;
12165;SDS011;6146;48.128;11.476;2023-06-10T14:27:55;3.63;;;3.33;;
12165;SDS011;6146;48.128;11.476;2023-06-10T14:30:21;3.63;;;3.30;;
12165;SDS011;6146;48.128;11.476;2023-06-10T14:32:46;3.77;;;3.47;;
12165;SDS011;6146;48.128;11.476;2023-06-10T14:35:12;3.43;;;3.13;;
12165;SDS011;6146;48.128;11.476;2023-06-10T14:37:37;3.83;;;3.40;;
12165;SDS011;6146;48.128;11.476;2023-06-10T14:40:03;4.13;;;3.70;;
12165;SDS011;6146;48.128;11.476;2023-06-10T14:42:30;3.50;;;2.93;;
12165;SDS011;6146;48.128;11.476;2023-06-10T14:44:57;3.77;;;3.47;;
12165;SDS011;6146;48.128;11.476;2023-06-10T14:47:23;5.03;;;3.90;;
12165;SDS011;6146;48.128;11.476;2023-06-10T14:49:49;3.90;;;3.50;;
12165;SDS011;6146;48.128;11.476;2023-06-10T14:52:15;3.67;;;3.37;;
12165;SDS011;6146;48.128;11.476;2023-06-10T14:54:40;3.30;;;3.00;;
12165;SDS011;6146;48.128;11.476;2023-06-10T14:57:06;3.13;;;2.83;;
12165;SDS011;6146;48.128;11.476;2023-06-10T14:59:32;3.63;;;3.23;;
12165;SDS011;6146;48.128;11.476;2023-06-10T15:01:58;3.43;;;3.13;;
12165;SDS011;6146;48.128;11.476;2023-06-10T15:04:25;3.70;;;3.17;;
12165;SDS011;6146;48.128;11.476;2023-06-10T15:06:51;3.20;;;2.90;;
12165;SDS011;6146;48.128;11.476;2023-06-10T15:09:17;3.73;;;2.73;;
12165;SDS011;6146;48.128;11.476;2023-06-10T15:11:43;3.30;;;3.00;;
12165;SDS011;6146;48.128;11.476;2023-06-10T15:14:08;3.23;;;2.93;;
12165;SDS011;6146;48.128;11.476;2023-06-10T15:16:34;3.20;;;3.00;;
12165;SDS011;6146;48.128;11.476;2023-06-10T15:19:00;3.40;;;3.10;;